Time;durP1;ratioP1;P1;durP2;ratioP2;P2;SDS_P1;SDS_P2;PMS_P1;PMS_P2;Temp;Humidity;BMP_temperature;BMP_pressure;BME280_temperature;BME280_humidity;BME280_pressure;Samples;Min_cycle;Max_cycle;Signal;HPM_P1;HPM_P2
2023/04/20 00:01:33;;;;;;;53.95;47.73;;;31.00;76.30;;;;;;1844780;76;21680;-81
2023/04/20 00:04:04;;;;;;;53.48;46.45;;;31.00;76.00;;;;;;1854405;76;21166;-81
2023/04/20 00:06:35;;;;;;;50.67;45.35;;;31.00;76.00;;;;;;1847395;77;21142;-81
2023/04/20 00:09:07;;;;;;;51.58;46.00;;;31.00;75.30;;;;;;1840210;76;21739;-82
2023/04/20 00:11:38;;;;;;;50.98;45.55;;;31.00;76.10;;;;;;1842369;78;21160;-81
2023/04/20 00:14:09;;;;;;;52.88;45.35;;;31.10;76.20;;;;;;1841815;78;21195;-82
2023/04/20 00:16:40;;;;;;;52.38;45.90;;;31.10;76.10;;;;;;1839832;78;21143;-81
2023/04/20 00:19:11;;;;;;;52.60;45.75;;;31.10;76.30;;;;;;1844709;76;21115;-82
2023/04/20 00:21:42;;;;;;;54.55;47.83;;;31.10;75.40;;;;;;1804651;79;21660;-83
2023/04/20 00:24:14;;;;;;;53.50;46.70;;;31.20;76.00;;;;;;1843924;77;21644;-82
2023/04/20 00:26:45;;;;;;;53.23;45.43;;;31.20;76.20;;;;;;1842565;77;21136;-83
2023/04/20 00:29:16;;;;;;;51.55;45.63;;;31.20;76.50;;;;;;1824766;78;21220;-82
2023/04/20 00:31:48;;;;;;;50.67;45.12;;;31.20;76.40;;;;;;1809036;78;21177;-82
2023/04/20 00:34:19;;;;;;;52.60;45.00;;;31.20;76.50;;;;;;1808682;79;21170;-84
2023/04/20 00:36:50;;;;;;;51.45;44.90;;;31.20;76.40;;;;;;1845822;76;21118;-84
2023/04/20 00:39:21;;;;;;;50.85;44.65;;;31.20;76.80;;;;;;1844612;76;21212;-82
2023/04/20 00:41:53;;;;;;;55.88;43.42;;;31.20;76.60;;;;;;1859105;76;22125;-82
2023/04/20 00:44:24;;;;;;;53.50;42.40;;;31.20;76.60;;;;;;1845119;76;21139;-83
2023/04/20 00:46:56;;;;;;;53.85;44.77;;;31.30;77.00;;;;;;1842626;76;21163;-83
2023/04/20 00:49:29;;;;;;;53.42;42.62;;;31.30;76.60;;;;;;1838526;77;21557;-81
2023/04/20 00:52:00;;;;;;;47.20;41.40;;;31.40;76.90;;;;;;1842369;77;21129;-82
2023/04/20 00:54:32;;;;;;;49.80;42.78;;;31.40;76.10;;;;;;1844130;77;21119;-81
2023/04/20 00:57:04;;;;;;;51.13;42.88;;;31.40;76.30;;;;;;1798408;79;21182;-73
2023/04/20 00:59:35;;;;;;;55.52;44.67;;;31.50;76.20;;;;;;1795276;78;21204;-74
2023/04/20 01:02:06;;;;;;;48.80;43.45;;;31.50;76.20;;;;;;1838846;77;21222;-75
2023/04/20 01:04:38;;;;;;;51.33;42.60;;;31.60;76.40;;;;;;1823477;77;21212;-74
2023/04/20 01:07:09;;;;;;;49.23;43.58;;;31.60;76.60;;;;;;1827145;77;21215;-74
2023/04/20 01:09:41;;;;;;;48.20;42.75;;;31.70;76.50;;;;;;1826243;78;21094;-73
2023/04/20 01:12:12;;;;;;;49.13;43.80;;;31.70;76.00;;;;;;1830451;77;21131;-76
2023/04/20 01:14:44;;;;;;;49.95;42.05;;;31.70;76.00;;;;;;1841461;77;21111;-74
2023/04/20 01:17:16;;;;;;;50.88;43.90;;;31.80;76.10;;;;;;1842593;77;21110;-73
2023/04/20 01:19:48;;;;;;;48.78;42.98;;;31.80;76.20;;;;;;1843474;76;21508;-76
2023/04/20 01:22:20;;;;;;;49.65;43.17;;;31.80;76.10;;;;;;1802952;79;21583;-74
2023/04/20 01:24:51;;;;;;;52.73;42.65;;;31.90;76.00;;;;;;1831260;77;21094;-74
2023/04/20 01:27:22;;;;;;;48.28;41.73;;;32.00;75.50;;;;;;1833062;77;21161;-74
2023/04/20 01:29:53;;;;;;;50.40;42.78;;;32.10;75.40;;;;;;1837535;77;21177;-75
2023/04/20 01:32:24;;;;;;;74.17;45.12;;;32.10;75.40;;;;;;1795247;78;21126;-74
2023/04/20 01:34:56;;;;;;;83.65;51.75;;;32.20;74.80;;;;;;1832221;77;21471;-73
2023/04/20 01:37:27;;;;;;;65.22;46.63;;;32.30;74.90;;;;;;1830365;77;21612;-73
2023/04/20 01:39:58;;;;;;;75.37;42.93;;;32.40;74.40;;;;;;1833498;77;21145;-74
2023/04/20 01:42:29;;;;;;;55.63;42.00;;;32.40;73.70;;;;;;1832607;77;21189;-74
2023/04/20 01:45:01;;;;;;;56.40;42.05;;;32.50;73.70;;;;;;1828877;77;21630;-75
2023/04/20 01:47:32;;;;;;;50.25;40.60;;;32.40;73.40;;;;;;1820129;77;21142;-78
2023/04/20 01:50:04;;;;;;;49.53;40.60;;;32.50;73.40;;;;;;1817571;76;21845;-73
2023/04/20 01:52:35;;;;;;;56.13;43.50;;;32.50;73.40;;;;;;1812599;78;22032;-76
2023/04/20 01:55:07;;;;;;;47.88;41.75;;;32.50;73.70;;;;;;1816373;77;21693;-73
2023/04/20 01:57:38;;;;;;;48.42;42.62;;;32.60;73.40;;;;;;1809682;77;21200;-73
2023/04/20 02:00:10;;;;;;;48.58;41.73;;;32.60;73.20;;;;;;1809686;78;21143;-73
2023/04/20 02:02:41;;;;;;;48.95;42.95;;;32.70;73.10;;;;;;1810702;79;21672;-73
2023/04/20 02:05:13;;;;;;;47.08;41.90;;;32.70;72.60;;;;;;1818902;77;21615;-72
2023/04/20 02:07:44;;;;;;;48.00;40.33;;;32.80;72.20;;;;;;1811521;78;21181;-74
2023/04/20 02:10:16;;;;;;;46.08;40.67;;;32.80;72.50;;;;;;1812866;77;21627;-74
2023/04/20 02:12:48;;;;;;;46.28;41.00;;;32.90;72.30;;;;;;1812355;79;21118;-74
2023/04/20 02:15:19;;;;;;;49.23;39.92;;;33.00;71.70;;;;;;1813682;77;21696;-75
2023/04/20 02:17:50;;;;;;;44.88;40.03;;;33.10;71.10;;;;;;1808288;78;21239;-74
2023/04/20 02:20:22;;;;;;;43.95;39.23;;;33.20;71.00;;;;;;1807919;78;21306;-75
2023/04/20 02:22:53;;;;;;;51.80;40.35;;;33.20;70.70;;;;;;1813780;77;21458;-73
2023/04/20 02:25:24;;;;;;;47.73;39.58;;;33.30;70.50;;;;;;1815472;78;21603;-73
2023/04/20 02:27:55;;;;;;;49.10;41.23;;;33.40;69.40;;;;;;1760346;79;21195;-78
2023/04/20 02:30:26;;;;;;;48.48;39.05;;;33.50;69.20;;;;;;1814649;78;21114;-75
2023/04/20 02:32:58;;;;;;;73.07;42.55;;;33.50;69.40;;;;;;1810619;77;21157;-76
2023/04/20 02:35:29;;;;;;;53.87;40.70;;;33.60;68.90;;;;;;1814639;78;21779;-72
2023/04/20 02:38:00;;;;;;;47.75;40.05;;;33.60;69.10;;;;;;1813390;77;21177;-73
2023/04/20 02:40:32;;;;;;;52.30;39.10;;;33.70;68.50;;;;;;1816627;77;21138;-75
2023/04/20 02:43:03;;;;;;;45.85;38.33;;;33.90;67.90;;;;;;1808505;78;21134;-73
2023/04/20 02:45:35;;;;;;;45.50;40.70;;;33.90;68.00;;;;;;1808381;78;21154;-75
2023/04/20 02:48:06;;;;;;;45.98;38.58;;;34.00;66.70;;;;;;1810812;77;21822;-74
2023/04/20 02:50:38;;;;;;;55.48;40.28;;;34.20;67.20;;;;;;1817459;77;21220;-73
2023/04/20 02:53:09;;;;;;;45.03;39.10;;;34.20;65.60;;;;;;1824970;77;21722;-76
2023/04/20 02:55:40;;;;;;;46.98;38.60;;;34.30;65.80;;;;;;1818115;77;21169;-72
2023/04/20 02:58:11;;;;;;;43.60;38.85;;;34.30;64.90;;;;;;1808978;78;21137;-75
2023/04/20 03:00:43;;;;;;;46.48;38.95;;;34.50;64.90;;;;;;1815795;78;21135;-75
2023/04/20 03:03:15;;;;;;;48.45;38.23;;;34.50;63.80;;;;;;1809879;77;21168;-73
2023/04/20 03:05:47;;;;;;;58.80;39.40;;;34.60;64.40;;;;;;1816995;78;21145;-73
2023/04/20 03:08:18;;;;;;;48.90;39.42;;;34.60;64.30;;;;;;1810223;79;21213;-73
2023/04/20 03:10:49;;;;;;;51.28;39.05;;;34.70;64.10;;;;;;1810186;78;21676;-74
2023/04/20 03:13:21;;;;;;;49.25;37.60;;;34.80;62.80;;;;;;1815522;78;21133;-73
2023/04/20 03:15:53;;;;;;;64.17;39.35;;;34.80;63.90;;;;;;1813094;78;21138;-74
2023/04/20 03:18:24;;;;;;;56.88;37.88;;;34.90;62.10;;;;;;1810920;79;21106;-74
2023/04/20 03:20:55;;;;;;;45.38;38.90;;;34.90;62.30;;;;;;1808457;78;21193;-73
2023/04/20 03:23:26;;;;;;;66.47;40.98;;;34.90;62.30;;;;;;1812677;79;21133;-72
2023/04/20 03:25:58;;;;;;;44.85;38.30;;;35.00;61.80;;;;;;1804730;79;21685;-74
2023/04/20 03:28:29;;;;;;;57.73;41.30;;;35.00;62.70;;;;;;1808976;78;21148;-76
2023/04/20 03:31:00;;;;;;;47.90;39.48;;;35.10;61.40;;;;;;1811017;78;21780;-74
2023/04/20 03:33:31;;;;;;;44.45;38.50;;;35.00;60.50;;;;;;1811662;79;21177;-74
2023/04/20 03:36:04;;;;;;;47.67;38.48;;;35.10;61.30;;;;;;1803679;79;21228;-74
2023/04/20 03:38:35;;;;;;;46.25;38.50;;;35.20;61.30;;;;;;1808599;79;21653;-74
2023/04/20 03:41:07;;;;;;;76.95;42.55;;;35.30;61.70;;;;;;1807526;79;21173;-75
2023/04/20 03:43:38;;;;;;;49.98;37.83;;;35.30;60.60;;;;;;1810493;78;21118;-76
2023/04/20 03:46:09;;;;;;;45.98;38.02;;;35.40;60.80;;;;;;1814838;79;21594;-74
2023/04/20 03:48:41;;;;;;;43.78;37.78;;;35.60;60.70;;;;;;1815120;78;21689;-74
2023/04/20 03:51:12;;;;;;;48.58;38.00;;;35.60;59.60;;;;;;1813879;79;21134;-74
2023/04/20 03:53:43;;;;;;;49.03;39.35;;;35.60;59.60;;;;;;1815463;79;21209;-74
2023/04/20 03:56:14;;;;;;;73.55;41.28;;;35.70;59.60;;;;;;1812333;78;21598;-74
2023/04/20 03:58:45;;;;;;;50.60;38.78;;;35.80;59.00;;;;;;1818250;78;21123;-74
2023/04/20 04:01:17;;;;;;;43.45;37.00;;;35.90;59.10;;;;;;1815398;78;21805;-73
2023/04/20 04:03:49;;;;;;;43.70;39.13;;;36.00;59.70;;;;;;1816105;78;21188;-74
2023/04/20 04:06:20;;;;;;;55.38;39.48;;;36.10;58.50;;;;;;1816851;78;21863;-73
2023/04/20 04:08:52;;;;;;;49.73;39.58;;;36.10;58.70;;;;;;1807066;78;21165;-74
2023/04/20 04:11:24;;;;;;;56.02;40.25;;;36.10;58.90;;;;;;1814819;77;21110;-74
2023/04/20 04:13:55;;;;;;;51.30;39.98;;;36.10;58.30;;;;;;1813162;79;21164;-77
2023/04/20 04:16:26;;;;;;;43.80;39.08;;;36.10;58.70;;;;;;1815129;78;21150;-75
2023/04/20 04:18:57;;;;;;;50.23;40.10;;;36.20;58.30;;;;;;1813384;79;21216;-75
2023/04/20 04:21:29;;;;;;;45.90;38.08;;;36.30;58.40;;;;;;1811607;79;21126;-76
2023/04/20 04:24:01;;;;;;;74.32;39.73;;;36.40;58.10;;;;;;1815299;79;21141;-75
2023/04/20 04:26:33;;;;;;;50.75;39.53;;;36.50;57.50;;;;;;1816461;79;21129;-74
2023/04/20 04:29:05;;;;;;;45.10;40.35;;;36.60;57.80;;;;;;1815274;79;21603;-78
2023/04/20 04:31:36;;;;;;;54.95;45.03;;;36.60;57.80;;;;;;1816999;78;21114;-77
2023/04/20 04:34:08;;;;;;;51.42;40.58;;;36.70;57.50;;;;;;1815310;79;21154;-77
2023/04/20 04:36:39;;;;;;;47.27;40.67;;;36.70;57.90;;;;;;1814878;79;21712;-75
2023/04/20 04:39:11;;;;;;;43.45;37.88;;;36.80;58.20;;;;;;1814939;79;21628;-76
2023/04/20 04:41:42;;;;;;;45.65;40.60;;;36.80;56.70;;;;;;1815862;79;21141;-75
2023/04/20 04:44:14;;;;;;;45.70;41.00;;;36.80;57.00;;;;;;1812929;79;21169;-75
2023/04/20 04:46:46;;;;;;;45.58;40.67;;;36.80;57.10;;;;;;1815056;79;21221;-73
2023/04/20 04:49:19;;;;;;;67.65;44.03;;;36.80;57.50;;;;;;1808317;79;21212;-78
2023/04/20 04:51:50;;;;;;;47.03;42.08;;;36.80;57.90;;;;;;1809430;79;21644;-75
2023/04/20 04:54:21;;;;;;;46.55;41.15;;;36.80;58.10;;;;;;1809867;79;21200;-76
2023/04/20 04:56:52;;;;;;;45.10;40.35;;;36.90;57.00;;;;;;1815009;79;21158;-75
2023/04/20 04:59:24;;;;;;;52.33;43.00;;;37.00;56.60;;;;;;1810050;79;21282;-74
2023/04/20 05:01:55;;;;;;;47.83;42.80;;;37.00;56.60;;;;;;1808768;78;21150;-74
2023/04/20 05:04:26;;;;;;;48.10;42.13;;;37.00;57.10;;;;;;1809135;78;21189;-75
2023/04/20 05:06:57;;;;;;;47.88;42.90;;;37.10;56.80;;;;;;1809258;78;21664;-74
2023/04/20 05:09:32;;;;;;;44.38;40.03;;;37.20;57.00;;;;;;1807413;78;21110;-74
2023/04/20 05:12:01;;;;;;;47.05;41.95;;;37.20;57.00;;;;;;1803600;78;21670;-78
2023/04/20 05:14:33;;;;;;;46.80;41.98;;;37.20;56.50;;;;;;1810026;78;21118;-75
2023/04/20 05:17:05;;;;;;;49.35;44.05;;;37.30;56.90;;;;;;1814726;78;21180;-75
2023/04/20 05:19:36;;;;;;;46.00;41.10;;;37.20;56.90;;;;;;1770475;79;21197;-76
2023/04/20 05:22:08;;;;;;;45.95;40.65;;;37.30;56.20;;;;;;1815902;78;21591;-76
2023/04/20 05:24:39;;;;;;;45.80;41.20;;;37.40;55.80;;;;;;1809819;78;21262;-75
2023/04/20 05:27:10;;;;;;;46.75;41.70;;;37.30;55.80;;;;;;1807821;78;21243;-74
2023/04/20 05:29:42;;;;;;;45.45;40.80;;;37.30;55.60;;;;;;1813189;78;21173;-76
2023/04/20 05:32:13;;;;;;;45.70;40.73;;;37.40;55.80;;;;;;1813319;78;21145;-76
2023/04/20 05:34:44;;;;;;;49.60;44.35;;;37.40;55.70;;;;;;1809383;78;21224;-75
2023/04/20 05:37:16;;;;;;;43.58;39.10;;;37.40;55.60;;;;;;1807011;79;21134;-74
2023/04/20 05:39:47;;;;;;;47.40;42.35;;;37.50;55.60;;;;;;1811530;79;21138;-75
2023/04/20 05:42:19;;;;;;;44.55;40.00;;;37.50;55.00;;;;;;1810659;78;21182;-75
2023/04/20 05:44:50;;;;;;;43.95;39.25;;;37.60;54.60;;;;;;1808043;78;21145;-75
2023/04/20 05:47:21;;;;;;;45.67;40.52;;;37.60;55.50;;;;;;1807199;78;21683;-77
2023/04/20 05:49:52;;;;;;;45.48;40.60;;;37.60;54.70;;;;;;1804198;77;21329;-76
2023/04/20 05:52:23;;;;;;;45.17;40.50;;;37.60;54.00;;;;;;1810272;78;21169;-78
2023/04/20 05:54:55;;;;;;;45.23;40.48;;;37.60;54.80;;;;;;1809184;78;21236;-77
2023/04/20 05:57:26;;;;;;;52.33;41.55;;;37.60;55.50;;;;;;1808290;78;21582;-76
2023/04/20 05:59:57;;;;;;;45.80;39.98;;;37.70;54.70;;;;;;1773862;81;21189;-77
2023/04/20 06:02:29;;;;;;;42.60;38.15;;;37.80;54.10;;;;;;1764984;80;21184;-76
2023/04/20 06:05:00;;;;;;;47.70;39.95;;;37.90;53.20;;;;;;1750775;81;21178;-75
2023/04/20 06:07:32;;;;;;;44.80;40.12;;;37.90;52.70;;;;;;1764584;80;21757;-77
2023/04/20 06:10:03;;;;;;;50.95;40.60;;;38.00;53.10;;;;;;1810936;78;21150;-76
2023/04/20 06:12:35;;;;;;;44.27;39.70;;;38.00;53.00;;;;;;1812648;78;21152;-77
2023/04/20 06:15:08;;;;;;;46.30;41.55;;;38.00;53.10;;;;;;1814301;78;21201;-77
2023/04/20 06:17:40;;;;;;;47.65;40.98;;;38.00;53.70;;;;;;1807638;78;21124;-75
2023/04/20 06:20:12;;;;;;;47.23;42.17;;;38.00;53.50;;;;;;1811755;79;21876;-74
2023/04/20 06:22:46;;;;;;;44.80;40.17;;;38.00;53.60;;;;;;1810138;78;21715;-76
2023/04/20 06:25:17;;;;;;;45.75;40.80;;;38.00;53.70;;;;;;1808561;78;21114;-77
2023/04/20 06:27:48;;;;;;;47.93;40.35;;;38.00;53.80;;;;;;1804396;79;21127;-78
2023/04/20 06:30:21;;;;;;;45.23;39.45;;;38.00;53.40;;;;;;1772823;81;21482;-75
2023/04/20 06:32:52;;;;;;;50.83;40.88;;;38.00;52.40;;;;;;1815308;79;21628;-77
2023/04/20 06:35:24;;;;;;;46.85;41.73;;;37.90;51.70;;;;;;1816909;78;21715;-74
2023/04/20 06:37:56;;;;;;;44.77;40.12;;;37.90;51.60;;;;;;1762219;79;21552;-73
2023/04/20 06:40:30;;;;;;;46.92;41.92;;;37.90;52.50;;;;;;1814899;78;21087;-74
2023/04/20 06:43:01;;;;;;;46.10;41.20;;;38.00;53.00;;;;;;1809864;78;21205;-75
2023/04/20 06:45:33;;;;;;;45.55;40.73;;;38.00;53.30;;;;;;1808047;78;21695;-75
2023/04/20 06:48:04;;;;;;;44.93;40.52;;;38.00;53.00;;;;;;1809127;78;21739;-75
2023/04/20 06:50:37;;;;;;;45.70;40.75;;;38.00;52.50;;;;;;1807402;78;21160;-75
2023/04/20 06:53:11;;;;;;;47.23;42.13;;;38.00;52.90;;;;;;1828742;77;21211;-73
2023/04/20 06:55:42;;;;;;;47.40;42.45;;;38.00;52.60;;;;;;1825810;77;21227;-75
2023/04/20 06:58:13;;;;;;;46.37;41.45;;;38.00;52.70;;;;;;1823742;77;21066;-75
2023/04/20 07:00:44;;;;;;;46.08;41.15;;;37.90;52.80;;;;;;1830168;77;21653;-74
2023/04/20 07:03:17;;;;;;;53.48;42.88;;;38.00;52.80;;;;;;1817503;77;21267;-75
2023/04/20 07:05:48;;;;;;;47.03;42.23;;;38.00;52.90;;;;;;1827928;77;21137;-75
2023/04/20 07:08:19;;;;;;;48.85;42.33;;;38.00;53.10;;;;;;1831785;77;21129;-75
2023/04/20 07:10:51;;;;;;;48.38;43.10;;;37.90;52.60;;;;;;1833997;77;21180;-75
2023/04/20 07:13:22;;;;;;;49.58;44.08;;;37.90;52.60;;;;;;1837788;77;21509;-74
2023/04/20 07:15:53;;;;;;;50.05;43.02;;;37.90;52.40;;;;;;1830988;77;21145;-75
2023/04/20 07:18:25;;;;;;;51.75;42.40;;;37.90;52.90;;;;;;1828888;78;21629;-76
2023/04/20 07:20:57;;;;;;;47.55;42.53;;;37.90;52.40;;;;;;1834749;76;21227;-74
2023/04/20 07:23:28;;;;;;;58.87;44.15;;;37.90;52.40;;;;;;1832194;77;21113;-75
2023/04/20 07:25:59;;;;;;;47.73;42.75;;;37.90;52.30;;;;;;1826539;77;21211;-73
2023/04/20 07:28:34;;;;;;;46.48;41.73;;;38.00;52.40;;;;;;1843608;77;21221;-75
2023/04/20 07:31:09;;;;;;;56.05;43.33;;;37.90;52.50;;;;;;1836187;77;21190;-76
2023/04/20 07:33:40;;;;;;;48.75;43.75;;;38.00;52.40;;;;;;1839940;77;21179;-75
2023/04/20 07:36:11;;;;;;;49.18;43.63;;;38.00;52.30;;;;;;1837357;77;21206;-75
2023/04/20 07:38:43;;;;;;;47.08;42.30;;;38.00;52.50;;;;;;1830351;77;21098;-76
2023/04/20 07:41:15;;;;;;;47.80;42.78;;;38.00;52.30;;;;;;1827830;77;21153;-76
2023/04/20 07:43:47;;;;;;;48.48;41.73;;;37.90;52.40;;;;;;1839293;77;21908;-75
2023/04/20 07:46:23;;;;;;;48.13;42.95;;;37.90;51.90;;;;;;1829418;77;21149;-75
2023/04/20 07:48:54;;;;;;;48.52;43.40;;;37.80;52.30;;;;;;1829423;78;21137;-76
2023/04/20 07:51:29;;;;;;;47.30;41.88;;;37.90;52.00;;;;;;1830173;76;21195;-73
2023/04/20 07:53:58;;;;;;;45.12;40.15;;;38.00;52.00;;;;;;1833794;77;21182;-75
2023/04/20 07:56:34;;;;;;;49.15;43.68;;;38.00;51.50;;;;;;1845406;77;21710;-75
2023/04/20 07:59:07;;;;;;;59.90;43.50;;;38.00;52.00;;;;;;1838385;77;22331;-74
2023/04/20 08:01:38;;;;;;;46.88;41.92;;;38.00;51.90;;;;;;1825236;77;21153;-74
2023/04/20 08:04:09;;;;;;;46.88;41.63;;;38.10;52.00;;;;;;1795696;78;21171;-75
2023/04/20 08:06:41;;;;;;;47.62;41.33;;;38.10;52.00;;;;;;1805802;78;21092;-75
2023/04/20 08:09:15;;;;;;;59.38;43.30;;;38.10;51.90;;;;;;1828182;78;21230;-76
2023/04/20 08:11:47;;;;;;;51.45;43.40;;;38.00;52.10;;;;;;1833297;78;21078;-75
2023/04/20 08:14:18;;;;;;;70.83;43.78;;;38.00;51.70;;;;;;1835363;77;21089;-74
2023/04/20 08:16:50;;;;;;;48.70;41.80;;;38.00;51.90;;;;;;1824397;77;21274;-73
2023/04/20 08:19:21;;;;;;;46.90;42.10;;;38.10;52.70;;;;;;1823811;78;21195;-74
2023/04/20 08:21:53;;;;;;;46.63;42.00;;;38.00;51.60;;;;;;1835571;77;21102;-75
2023/04/20 08:24:24;;;;;;;48.23;43.23;;;38.10;52.00;;;;;;1830867;77;21161;-77
2023/04/20 08:26:57;;;;;;;47.78;42.05;;;38.10;52.00;;;;;;1827363;77;21466;-75
2023/04/20 08:29:28;;;;;;;52.45;41.25;;;38.00;51.80;;;;;;1825686;77;21161;-74
2023/04/20 08:31:59;;;;;;;50.80;42.48;;;38.00;51.60;;;;;;1829880;77;21600;-74
2023/04/20 08:34:36;;;;;;;50.30;43.17;;;38.00;51.80;;;;;;1828180;77;21195;-73
2023/04/20 08:37:08;;;;;;;46.83;42.00;;;37.90;51.50;;;;;;1846991;77;21241;-74
2023/04/20 08:39:40;;;;;;;51.70;42.88;;;37.90;51.80;;;;;;1827012;77;21773;-76
2023/04/20 08:42:11;;;;;;;54.53;43.08;;;37.90;51.60;;;;;;1830326;77;22167;-75
2023/04/20 08:44:42;;;;;;;45.90;41.13;;;38.00;52.00;;;;;;1832011;77;21089;-74
2023/04/20 08:47:17;;;;;;;51.10;44.15;;;38.00;51.70;;;;;;1824037;76;21706;-75
2023/04/20 08:49:50;;;;;;;47.20;42.38;;;38.00;51.50;;;;;;1829248;77;21207;-85
2023/04/20 08:52:25;;;;;;;51.73;41.75;;;37.90;51.50;;;;;;1815357;77;21141;-85
2023/04/20 08:54:56;;;;;;;47.33;42.38;;;37.90;51.60;;;;;;1805137;78;21236;-84
2023/04/20 08:57:27;;;;;;;50.80;42.67;;;37.90;51.80;;;;;;1804496;78;21231;-84
2023/04/20 08:59:59;;;;;;;47.40;42.40;;;37.80;51.80;;;;;;1814577;78;21117;-84
2023/04/20 09:02:31;;;;;;;47.58;41.48;;;37.90;51.50;;;;;;1804013;78;21098;-87
2023/04/20 09:05:07;;;;;;;47.85;42.23;;;37.80;51.90;;;;;;1808391;78;21130;-86
2023/04/20 09:07:39;;;;;;;46.95;42.10;;;37.80;52.20;;;;;;1799679;78;21200;-85
2023/04/20 09:10:10;;;;;;;51.70;41.92;;;37.80;52.20;;;;;;1810783;78;21185;-85
2023/04/20 09:12:43;;;;;;;52.03;42.33;;;37.80;52.10;;;;;;1800539;78;21570;-84
2023/04/20 09:15:28;;;;;;;46.08;41.45;;;37.80;52.10;;;;;;1799252;78;21235;-86
2023/04/20 09:18:02;;;;;;;51.60;41.15;;;37.80;51.60;;;;;;1807065;78;21121;-85
2023/04/20 09:20:35;;;;;;;51.83;42.35;;;37.80;51.70;;;;;;1799104;78;21086;-82
2023/04/20 09:23:14;;;;;;;47.10;42.05;;;37.70;51.50;;;;;;1795256;78;21193;-83
2023/04/20 09:25:46;;;;;;;48.60;43.00;;;37.70;51.30;;;;;;1796190;78;21147;-83
2023/04/20 09:28:20;;;;;;;45.73;41.10;;;37.70;51.80;;;;;;1801132;78;21169;-82
2023/04/20 09:30:51;;;;;;;48.02;42.98;;;37.70;51.70;;;;;;1805377;78;21121;-84
2023/04/20 09:33:24;;;;;;;51.55;41.40;;;37.60;51.10;;;;;;1764636;80;21151;-81
2023/04/20 09:35:58;;;;;;;51.10;42.38;;;37.60;51.00;;;;;;1796553;78;21188;-82
2023/04/20 09:38:29;;;;;;;46.75;41.85;;;37.60;50.90;;;;;;1799726;78;21532;-82
2023/04/20 09:41:01;;;;;;;49.48;41.90;;;37.60;50.60;;;;;;1804611;78;21170;-85
2023/04/20 09:43:35;;;;;;;47.40;41.90;;;37.50;50.80;;;;;;1799894;78;21672;-84
2023/04/20 09:46:07;;;;;;;49.23;40.30;;;37.50;50.10;;;;;;1783295;78;21234;-83
2023/04/20 09:48:39;;;;;;;50.95;40.28;;;37.40;50.60;;;;;;1792445;79;21145;-85
2023/04/20 09:51:10;;;;;;;47.95;39.60;;;37.40;49.90;;;;;;1798603;79;21303;-83
2023/04/20 09:53:42;;;;;;;46.50;41.37;;;37.40;50.10;;;;;;1807757;78;21210;-85
2023/04/20 09:56:13;;;;;;;47.15;42.23;;;37.40;50.30;;;;;;1774865;79;21188;-85
2023/04/20 09:58:47;;;;;;;46.45;40.75;;;37.40;50.40;;;;;;1814264;79;21157;-83
2023/04/20 10:01:19;;;;;;;44.77;40.08;;;37.30;50.30;;;;;;1795794;79;21264;-83
2023/04/20 10:03:52;;;;;;;47.83;41.42;;;37.30;50.80;;;;;;1805575;79;21310;-85
2023/04/20 10:06:28;;;;;;;45.83;40.90;;;37.30;50.90;;;;;;1802144;79;21129;-86
2023/04/20 10:09:01;;;;;;;45.12;40.50;;;37.30;50.80;;;;;;1805302;77;21146;-86
2023/04/20 10:11:37;;;;;;;46.15;41.40;;;37.20;50.70;;;;;;1802147;77;21223;-85
2023/04/20 10:14:21;;;;;;;47.85;42.45;;;37.30;51.00;;;;;;1818594;77;21106;-83
2023/04/20 10:17:10;;;;;;;49.05;42.38;;;37.20;50.90;;;;;;1816951;77;21766;-86
2023/04/20 10:19:46;;;;;;;51.35;40.88;;;37.30;51.30;;;;;;1814290;77;21129;-85
2023/04/20 10:22:19;;;;;;;48.33;39.45;;;37.20;51.30;;;;;;1805034;77;21165;-85
2023/04/20 10:24:50;;;;;;;44.98;40.12;;;37.20;51.40;;;;;;1807614;77;21110;-85
2023/04/20 10:27:22;;;;;;;47.08;41.55;;;37.20;51.50;;;;;;1810395;77;21197;-84
2023/04/20 10:29:53;;;;;;;45.78;40.88;;;37.10;51.50;;;;;;1822847;77;21193;-85
2023/04/20 10:32:29;;;;;;;45.90;40.88;;;37.10;51.70;;;;;;1811901;79;21217;-86
2023/04/20 10:35:08;;;;;;;52.63;40.43;;;37.10;51.80;;;;;;1802526;78;21141;-85
2023/04/20 10:37:50;;;;;;;46.58;41.20;;;37.10;52.00;;;;;;1806369;77;21716;-85
2023/04/20 10:40:27;;;;;;;53.38;40.28;;;37.00;51.90;;;;;;1806302;77;21648;-85
2023/04/20 10:42:59;;;;;;;44.25;39.95;;;37.00;52.00;;;;;;1813047;77;21155;-84
2023/04/20 10:45:42;;;;;;;45.55;40.85;;;37.10;52.10;;;;;;1815820;79;21633;-86
2023/04/20 10:48:11;;;;;;;45.95;41.13;;;37.00;52.10;;;;;;1815271;77;21289;-85
2023/04/20 10:50:43;;;;;;;45.85;41.00;;;37.00;52.40;;;;;;1809896;77;21162;-85
2023/04/20 10:53:25;;;;;;;45.10;40.30;;;37.00;52.50;;;;;;1813534;79;21192;-83
2023/04/20 10:56:00;;;;;;;46.08;41.25;;;36.90;52.50;;;;;;1802649;78;21224;-84
2023/04/20 10:58:31;;;;;;;50.50;41.33;;;36.90;52.60;;;;;;1799835;78;21184;-85
2023/04/20 11:01:04;;;;;;;45.58;40.10;;;36.90;52.60;;;;;;1803313;78;21561;-86
2023/04/20 11:03:35;;;;;;;46.92;40.38;;;36.90;52.60;;;;;;1803180;78;21156;-86
2023/04/20 11:06:07;;;;;;;46.75;41.00;;;36.90;52.80;;;;;;1803513;79;22244;-85
2023/04/20 11:08:48;;;;;;;45.55;40.15;;;36.90;52.90;;;;;;1806634;78;21655;-85
2023/04/20 11:11:24;;;;;;;43.90;39.25;;;36.80;53.00;;;;;;1808326;78;21098;-85
2023/04/20 11:14:12;;;;;;;44.95;39.98;;;36.80;53.10;;;;;;1805365;78;21126;-85
2023/04/20 11:16:45;;;;;;;45.43;40.48;;;36.80;53.00;;;;;;1805085;78;21220;-85
2023/04/20 11:19:28;;;;;;;45.85;39.95;;;36.80;53.10;;;;;;1802288;79;21171;-85
2023/04/20 11:22:01;;;;;;;48.50;41.37;;;36.80;53.20;;;;;;1803928;78;21496;-85
2023/04/20 11:24:33;;;;;;;55.75;42.70;;;36.70;53.20;;;;;;1805768;78;21374;-86
2023/04/20 11:27:05;;;;;;;46.08;41.28;;;36.70;53.20;;;;;;1803554;79;21137;-85
2023/04/20 11:29:37;;;;;;;44.77;39.27;;;36.70;53.30;;;;;;1805479;78;21575;-85
2023/04/20 11:32:10;;;;;;;46.20;41.45;;;36.60;53.10;;;;;;1799191;78;21157;-84
2023/04/20 11:34:42;;;;;;;46.88;41.83;;;36.70;53.30;;;;;;1802197;78;21965;-86
2023/04/20 11:37:14;;;;;;;44.83;40.03;;;36.60;53.20;;;;;;1800520;78;21729;-87
2023/04/20 11:39:45;;;;;;;45.78;40.55;;;36.60;53.30;;;;;;1801833;79;21747;-84
2023/04/20 11:42:17;;;;;;;45.45;40.60;;;36.50;53.00;;;;;;1802042;78;21150;-85
2023/04/20 11:44:48;;;;;;;45.05;39.95;;;36.60;53.10;;;;;;1797979;79;21098;-86
2023/04/20 11:47:19;;;;;;;45.08;40.55;;;36.60;53.10;;;;;;1759223;80;21739;-85
2023/04/20 11:49:50;;;;;;;52.65;46.65;;;36.50;53.10;;;;;;1798527;79;21133;-76
2023/04/20 11:52:21;;;;;;;45.73;39.70;;;36.50;53.10;;;;;;1795591;78;21632;-75
2023/04/20 11:54:53;;;;;;;45.83;41.02;;;36.50;52.90;;;;;;1801987;77;21287;-77
2023/04/20 11:57:24;;;;;;;46.18;40.43;;;36.50;52.70;;;;;;1813774;77;21664;-76
2023/04/20 11:59:55;;;;;;;44.50;39.70;;;36.50;52.70;;;;;;1804047;78;21200;-77
2023/04/20 12:02:26;;;;;;;45.48;39.92;;;36.50;52.40;;;;;;1810343;77;21180;-77
2023/04/20 12:05:00;;;;;;;47.67;40.10;;;36.50;52.20;;;;;;1805060;77;21153;-79
2023/04/20 12:07:31;;;;;;;48.48;40.85;;;36.50;52.00;;;;;;1804374;77;21114;-79
2023/04/20 12:10:03;;;;;;;43.20;38.73;;;36.40;51.90;;;;;;1806148;77;21690;-77
2023/04/20 12:12:35;;;;;;;45.20;39.65;;;36.40;52.00;;;;;;1801059;78;21235;-78
2023/04/20 12:15:16;;;;;;;42.23;37.70;;;36.40;51.80;;;;;;1796241;77;21161;-78
2023/04/20 12:17:47;;;;;;;41.80;37.42;;;36.40;52.10;;;;;;1811731;77;21178;-77
2023/04/20 12:20:19;;;;;;;44.90;39.95;;;36.40;52.10;;;;;;1815685;77;21668;-77
2023/04/20 12:22:50;;;;;;;43.42;38.65;;;36.40;51.70;;;;;;1814114;77;21657;-78
2023/04/20 12:25:21;;;;;;;43.17;38.50;;;36.30;51.80;;;;;;1812415;77;21106;-77
2023/04/20 12:27:52;;;;;;;43.70;39.40;;;36.30;51.50;;;;;;1811380;77;22005;-79
2023/04/20 12:30:24;;;;;;;43.83;39.42;;;36.30;51.50;;;;;;1802053;77;21157;-78
2023/04/20 12:32:55;;;;;;;45.20;40.40;;;36.30;51.60;;;;;;1800717;77;21210;-76
2023/04/20 12:35:26;;;;;;;44.93;40.00;;;36.30;51.60;;;;;;1814716;77;21606;-79
2023/04/20 12:37:58;;;;;;;48.28;40.83;;;36.20;51.60;;;;;;1812026;77;21552;-78
2023/04/20 12:40:30;;;;;;;44.85;40.12;;;36.20;51.50;;;;;;1797263;77;21160;-76
2023/04/20 12:43:02;;;;;;;46.55;41.28;;;36.20;51.70;;;;;;1808540;79;21180;-75
2023/04/20 12:45:33;;;;;;;48.68;40.63;;;36.10;51.60;;;;;;1809251;77;21624;-76
2023/04/20 12:48:05;;;;;;;52.33;41.48;;;36.10;51.90;;;;;;1803425;79;21181;-78
2023/04/20 12:50:36;;;;;;;49.13;41.73;;;36.10;52.00;;;;;;1814159;77;21229;-77
2023/04/20 12:53:08;;;;;;;52.83;43.75;;;36.10;52.30;;;;;;1817127;77;22127;-77